Raymond, New Hampshire
Current Conditions -  °F | °C
As of 5:53 AM on Friday 28 Nov 2014 (Local Time) from KMHT Reporting Station
Light Snow Light Snow  
Wind Chill: 19°   Ceiling: 1400
Heat Index: 27°   Visibility: 2.5mi
Dew Point: 24°   Wind: 7mph
Humidity: 89%   Direction: 330°NNW
Pressure: 30.01"   Gusts: NA
Location:  43.04°N, 71.18°W
Report Text: KMHT 281053Z 33006KT 2 1/2SM -SN BR BKN014 OVC019 M03/M04 A3001 RMK AO2 SLP182 P0000 T10281044
Loading
Personal Weather Stations






























Interactive Weather Map New forecast layout! Learn more

10-Day Weather Forecast

Advertisements
Track Severe Weather on mobile